Time;durP1;ratioP1;P1;durP2;ratioP2;P2;SDS_P1;SDS_P2;PMS_P1;PMS_P2;Temp;Humidity;BMP_temperature;BMP_pressure;BME280_temperature;BME280_humidity;BME280_pressure;Samples;Min_cycle;Max_cycle;Signal;HPM_P1;HPM_P2
2022/05/20 00:01:09;;;;;;;1.52;0.30;;;14.90;99.90;;;;;;5032556;28;20085;-61
2022/05/20 00:03:37;;;;;;;1.17;0.50;;;14.90;99.90;;;;;;5033263;28;20124;-61
2022/05/20 00:06:03;;;;;;;0.65;0.38;;;14.80;99.90;;;;;;5030141;28;20089;-61
2022/05/20 00:08:31;;;;;;;0.77;0.30;;;14.80;99.90;;;;;;5013222;28;20079;-61
2022/05/20 00:10:57;;;;;;;0.50;0.30;;;14.80;99.90;;;;;;5031759;28;20421;-61
2022/05/20 00:13:25;;;;;;;1.00;0.32;;;14.70;99.90;;;;;;5031171;28;20131;-61
2022/05/20 00:15:53;;;;;;;0.88;0.30;;;14.70;99.90;;;;;;5037095;28;20124;-60
2022/05/20 00:18:20;;;;;;;0.50;0.20;;;14.70;99.90;;;;;;5036207;28;20144;-60
2022/05/20 00:20:47;;;;;;;0.50;0.25;;;14.70;99.90;;;;;;5034965;28;20045;-59
2022/05/20 00:23:14;;;;;;;0.55;0.38;;;14.70;99.90;;;;;;5031758;28;20129;-61
2022/05/20 00:25:47;;;;;;;0.65;0.30;;;14.70;99.90;;;;;;5030711;28;20072;-61
2022/05/20 00:28:20;;;;;;;0.30;0.20;;;14.70;99.90;;;;;;5029408;28;20049;-61
2022/05/20 00:30:51;;;;;;;0.45;0.20;;;14.70;99.90;;;;;;5031128;28;20049;-61
2022/05/20 00:33:18;;;;;;;0.57;0.30;;;14.80;99.90;;;;;;5029476;28;20114;-61
2022/05/20 00:35:45;;;;;;;0.63;0.50;;;14.80;99.90;;;;;;5037197;28;20136;-61
2022/05/20 00:38:12;;;;;;;0.70;0.28;;;14.80;99.90;;;;;;5033484;28;20049;-61
2022/05/20 00:40:39;;;;;;;0.93;0.40;;;14.80;99.90;;;;;;5033135;28;20296;-60
2022/05/20 00:43:14;;;;;;;0.60;0.22;;;14.80;99.90;;;;;;4999606;28;20167;-61
2022/05/20 00:45:42;;;;;;;0.65;0.30;;;14.80;99.90;;;;;;5039310;28;20045;-61
2022/05/20 00:48:09;;;;;;;0.30;0.30;;;14.80;99.90;;;;;;5039857;28;20140;-61
2022/05/20 00:50:38;;;;;;;0.52;0.40;;;14.80;99.90;;;;;;5038585;28;20053;-61
2022/05/20 00:53:05;;;;;;;0.40;0.25;;;14.70;99.90;;;;;;5020552;28;20120;-61
2022/05/20 00:55:31;;;;;;;0.38;0.20;;;14.70;99.90;;;;;;5019729;28;20128;-61
2022/05/20 00:58:05;;;;;;;0.80;0.38;;;14.70;99.90;;;;;;5039727;28;20148;-61
2022/05/20 01:00:32;;;;;;;1.08;0.30;;;14.70;99.90;;;;;;5020930;28;20457;-60
2022/05/20 01:03:01;;;;;;;0.82;0.30;;;14.70;99.90;;;;;;5018785;28;20057;-61
2022/05/20 01:05:32;;;;;;;1.10;0.40;;;14.70;99.90;;;;;;5032907;28;20142;-61
2022/05/20 01:07:58;;;;;;;0.63;0.30;;;14.70;99.90;;;;;;5019211;28;20124;-61
2022/05/20 01:10:25;;;;;;;0.57;0.30;;;14.60;99.90;;;;;;5021300;28;20047;-60
2022/05/20 01:12:53;;;;;;;0.65;0.30;;;14.60;99.90;;;;;;5033857;28;20507;-61
2022/05/20 01:15:19;;;;;;;1.63;0.75;;;14.50;99.90;;;;;;5015694;28;20072;-60
2022/05/20 01:17:48;;;;;;;0.88;0.30;;;14.40;99.90;;;;;;5018151;28;20132;-61
2022/05/20 01:20:18;;;;;;;0.63;0.35;;;14.30;99.90;;;;;;5011256;28;20084;-59
2022/05/20 01:23:09;;;;;;;0.70;0.40;;;14.30;99.90;;;;;;5030259;28;20132;-61
2022/05/20 01:25:39;;;;;;;0.30;0.30;;;14.20;99.90;;;;;;5037191;28;20100;-61
2022/05/20 01:28:05;;;;;;;0.52;0.28;;;14.10;99.90;;;;;;5034191;28;20131;-61
2022/05/20 01:30:32;;;;;;;0.90;0.40;;;14.10;99.90;;;;;;5033373;28;20171;-59
2022/05/20 01:33:06;;;;;;;1.30;0.50;;;14.00;99.90;;;;;;5035942;28;20050;-60
2022/05/20 01:35:41;;;;;;;0.77;0.50;;;14.00;99.90;;;;;;5028415;28;20124;-60
2022/05/20 01:38:10;;;;;;;0.75;0.50;;;14.00;99.90;;;;;;5030108;28;20132;-60
2022/05/20 01:40:46;;;;;;;0.73;0.50;;;13.90;99.90;;;;;;5030193;28;20080;-61
2022/05/20 01:43:33;;;;;;;0.82;0.30;;;13.90;99.90;;;;;;5015713;28;20291;-60
2022/05/20 01:46:02;;;;;;;0.90;0.38;;;13.90;99.90;;;;;;5023602;28;20441;-59
2022/05/20 01:48:35;;;;;;;0.68;0.30;;;13.90;99.90;;;;;;5033597;28;20487;-60
2022/05/20 01:51:02;;;;;;;;;;;13.80;99.90;;;;;;4998553;28;20657;-60
2022/05/20 01:53:38;;;;;;;0.63;0.30;;;13.80;99.90;;;;;;5015652;28;19960;-59
2022/05/20 01:56:34;;;;;;;1.42;0.50;;;13.80;99.90;;;;;;5015056;28;20128;-61
2022/05/20 01:59:02;;;;;;;0.60;0.30;;;13.70;99.90;;;;;;5019766;28;20160;-61
2022/05/20 02:01:45;;;;;;;0.75;0.38;;;13.70;99.90;;;;;;5017063;28;20178;-59
2022/05/20 02:04:22;;;;;;;1.70;0.55;;;13.70;99.90;;;;;;5003592;28;20053;-60
2022/05/20 02:06:52;;;;;;;0.38;0.30;;;13.60;99.90;;;;;;5013918;28;20137;-60
2022/05/20 02:09:27;;;;;;;0.52;0.40;;;13.60;99.90;;;;;;5021238;28;20091;-60
2022/05/20 02:11:55;;;;;;;0.63;0.32;;;13.60;99.90;;;;;;5017713;28;20041;-60
2022/05/20 02:14:27;;;;;;;0.80;0.40;;;13.60;99.90;;;;;;5018267;28;20073;-60
2022/05/20 02:16:59;;;;;;;0.50;0.20;;;13.60;99.90;;;;;;5031984;28;20081;-60
2022/05/20 02:19:44;;;;;;;1.13;0.22;;;13.60;99.90;;;;;;5029904;28;20069;-60
2022/05/20 02:22:13;;;;;;;0.57;0.38;;;13.60;99.90;;;;;;5037309;28;20099;-59
2022/05/20 02:24:40;;;;;;;1.35;0.52;;;13.60;99.90;;;;;;5020497;28;20127;-60
2022/05/20 02:27:08;;;;;;;0.35;0.30;;;13.60;99.90;;;;;;5039177;28;20482;-60
2022/05/20 02:29:40;;;;;;;0.55;0.35;;;13.60;99.90;;;;;;5020395;28;20133;-60
2022/05/20 02:32:27;;;;;;;1.20;0.40;;;13.60;99.90;;;;;;5020892;28;20602;-60
2022/05/20 02:34:54;;;;;;;0.55;0.30;;;13.60;99.90;;;;;;5012945;28;20608;-60
2022/05/20 02:37:33;;;;;;;0.40;0.30;;;13.60;99.90;;;;;;5013192;28;20152;-60
2022/05/20 02:40:01;;;;;;;0.65;0.30;;;13.70;99.90;;;;;;5031538;28;20057;-60
2022/05/20 02:42:28;;;;;;;0.93;0.40;;;13.60;99.90;;;;;;5031319;28;20045;-60
2022/05/20 02:44:58;;;;;;;0.30;0.28;;;13.70;99.90;;;;;;5036581;28;20067;-61
2022/05/20 02:47:32;;;;;;;0.60;0.30;;;13.60;99.90;;;;;;5038526;28;20088;-60
2022/05/20 02:50:05;;;;;;;0.95;0.40;;;13.60;99.90;;;;;;5037457;28;20037;-60
2022/05/20 02:52:32;;;;;;;0.30;0.30;;;13.60;99.90;;;;;;5039186;28;20095;-60
2022/05/20 02:54:58;;;;;;;0.30;0.20;;;13.60;99.90;;;;;;5040736;28;20168;-60
2022/05/20 02:57:25;;;;;;;0.80;0.52;;;13.60;99.90;;;;;;5041886;28;20045;-60
2022/05/20 03:05:23;;;;;;;0.52;0.30;;;13.60;99.90;;;;;;5040184;28;20045;-60
2022/05/20 03:07:53;;;;;;;0.30;0.30;;;13.70;99.90;;;;;;5035272;28;20052;-60
2022/05/20 03:10:20;;;;;;;1.92;0.68;;;13.70;99.90;;;;;;5017124;28;20587;-60
2022/05/20 03:12:46;;;;;;;0.35;0.25;;;13.60;99.90;;;;;;5035663;28;20052;-60
2022/05/20 03:15:14;;;;;;;0.40;0.20;;;13.60;99.90;;;;;;5040759;28;20171;-59
2022/05/20 03:17:41;;;;;;;0.63;0.35;;;13.70;99.90;;;;;;5040367;28;20544;-61
2022/05/20 03:20:09;;;;;;;0.47;0.30;;;13.60;99.90;;;;;;5041097;28;20045;-60
2022/05/20 03:22:36;;;;;;;0.60;0.40;;;13.60;99.90;;;;;;5041983;28;20152;-60
2022/05/20 03:25:04;;;;;;;0.32;0.22;;;13.50;99.90;;;;;;5041505;28;20116;-60
2022/05/20 03:27:31;;;;;;;0.22;0.20;;;13.50;99.90;;;;;;5041799;28;20075;-60
2022/05/20 03:29:59;;;;;;;0.63;0.20;;;13.40;99.90;;;;;;5040770;28;20063;-60
2022/05/20 03:32:25;;;;;;;1.10;0.50;;;13.40;99.90;;;;;;5041979;28;20045;-60
2022/05/20 03:34:52;;;;;;;0.63;0.40;;;13.40;99.90;;;;;;5035124;28;20049;-60
2022/05/20 03:37:19;;;;;;;0.43;0.20;;;13.40;99.90;;;;;;5023381;28;20045;-60
2022/05/20 03:39:45;;;;;;;0.60;0.25;;;13.40;99.90;;;;;;5041242;28;20055;-60
2022/05/20 03:42:12;;;;;;;0.93;0.30;;;13.40;99.90;;;;;;5041265;28;20072;-60
2022/05/20 03:44:39;;;;;;;0.82;0.40;;;13.50;99.90;;;;;;5036395;28;20686;-60
2022/05/20 03:47:05;;;;;;;1.55;0.40;;;13.50;99.90;;;;;;5034749;28;20148;-60
2022/05/20 03:49:32;;;;;;;0.68;0.28;;;13.60;99.90;;;;;;5033925;28;20144;-60
2022/05/20 03:51:59;;;;;;;0.40;0.30;;;13.60;99.90;;;;;;5034681;28;20037;-62
2022/05/20 03:54:29;;;;;;;0.40;0.30;;;13.60;99.90;;;;;;5040875;28;20459;-60
2022/05/20 03:56:55;;;;;;;0.20;0.20;;;13.50;99.90;;;;;;5038349;28;20140;-61
2022/05/20 03:59:22;;;;;;;0.22;0.10;;;13.60;99.90;;;;;;5036143;28;20068;-60
2022/05/20 04:01:58;;;;;;;0.47;0.22;;;13.60;99.90;;;;;;5041250;28;20100;-60
2022/05/20 04:04:30;;;;;;;2.50;0.30;;;13.60;99.90;;;;;;5032389;28;20683;-60
2022/05/20 04:07:06;;;;;;;0.37;0.20;;;13.60;99.90;;;;;;5024135;28;21013;-60
2022/05/20 04:09:32;;;;;;;1.05;0.68;;;13.70;99.90;;;;;;5041544;28;20454;-60
2022/05/20 04:12:00;;;;;;;0.77;0.38;;;13.60;99.90;;;;;;5041179;28;20734;-60
2022/05/20 04:14:27;;;;;;;1.05;0.40;;;13.60;99.90;;;;;;5018240;28;20067;-60
2022/05/20 04:17:00;;;;;;;0.50;0.30;;;13.60;99.90;;;;;;5017866;28;20557;-60
2022/05/20 04:19:28;;;;;;;0.98;0.35;;;13.60;99.90;;;;;;5033128;28;20451;-60
2022/05/20 04:21:58;;;;;;;0.30;0.20;;;13.60;99.90;;;;;;5033773;28;20067;-59
2022/05/20 04:24:25;;;;;;;0.20;0.20;;;13.60;99.90;;;;;;5017487;28;20209;-60
2022/05/20 04:26:52;;;;;;;1.20;0.40;;;13.60;99.90;;;;;;5033365;28;20136;-60
2022/05/20 04:29:19;;;;;;;0.30;0.20;;;13.60;99.90;;;;;;5034023;28;20129;-59
2022/05/20 04:31:47;;;;;;;0.75;0.40;;;13.60;99.90;;;;;;5034026;28;20076;-60
2022/05/20 04:34:14;;;;;;;0.40;0.28;;;13.70;99.90;;;;;;5017392;28;20449;-59
2022/05/20 04:36:40;;;;;;;0.47;0.28;;;13.70;99.90;;;;;;5044308;28;20136;-60
2022/05/20 04:39:07;;;;;;;0.95;0.50;;;13.80;99.90;;;;;;5040539;28;20148;-60
2022/05/20 04:47:07;;;;;;;0.30;0.30;;;13.80;99.90;;;;;;5036215;28;20467;-60
2022/05/20 04:49:35;;;;;;;0.20;0.20;;;13.80;99.90;;;;;;5030416;28;20204;-60
2022/05/20 04:52:01;;;;;;;0.20;0.20;;;13.80;99.90;;;;;;5020505;28;20125;-60
2022/05/20 04:57:47;;;;;;;0.35;0.22;;;13.90;99.90;;;;;;5045863;28;20126;-60
2022/05/20 05:00:15;;;;;;;0.43;0.30;;;13.90;99.90;;;;;;5004930;28;20052;-60
2022/05/20 05:02:41;;;;;;;0.10;0.10;;;13.90;99.90;;;;;;5024915;28;20063;-60
2022/05/20 05:05:11;;;;;;;0.32;0.25;;;14.00;99.90;;;;;;5021698;28;20463;-60
2022/05/20 05:07:39;;;;;;;0.28;0.15;;;14.00;99.90;;;;;;5040759;28;20453;-60
2022/05/20 05:10:06;;;;;;;1.40;0.40;;;14.10;99.90;;;;;;5035837;28;20037;-60
2022/05/20 05:12:33;;;;;;;0.20;0.20;;;14.10;99.90;;;;;;5042092;28;20049;-60
2022/05/20 05:15:00;;;;;;;0.28;0.28;;;14.10;99.90;;;;;;5041225;28;20053;-60
2022/05/20 05:20:21;;;;;;;0.70;0.22;;;14.20;99.90;;;;;;5029678;28;20069;-60
2022/05/20 05:22:52;;;;;;;0.20;0.20;;;14.20;99.90;;;;;;5043839;28;20144;-60
2022/05/20 05:25:20;;;;;;;1.33;0.30;;;14.30;99.90;;;;;;5037116;28;20118;-60
2022/05/20 05:27:47;;;;;;;0.80;0.28;;;14.40;99.90;;;;;;5036132;28;20144;-60
2022/05/20 05:30:15;;;;;;;0.35;0.20;;;14.40;99.90;;;;;;5039511;28;20072;-61
2022/05/20 05:32:42;;;;;;;0.22;0.10;;;14.50;99.90;;;;;;5025581;28;20061;-61
2022/05/20 05:35:14;;;;;;;0.35;0.20;;;14.50;99.90;;;;;;5036303;28;20631;-60
2022/05/20 05:37:41;;;;;;;0.25;0.20;;;14.60;99.90;;;;;;5039733;28;20077;-60
2022/05/20 05:40:09;;;;;;;0.50;0.20;;;14.60;99.90;;;;;;5036215;28;20132;-60
2022/05/20 05:42:36;;;;;;;0.32;0.20;;;14.70;99.90;;;;;;5013895;28;20132;-60
2022/05/20 05:45:05;;;;;;;0.40;0.35;;;14.70;99.90;;;;;;5031008;28;20585;-60
2022/05/20 05:47:31;;;;;;;0.70;0.30;;;14.70;99.90;;;;;;5029981;28;20133;-61
2022/05/20 05:49:59;;;;;;;0.40;0.30;;;14.80;99.90;;;;;;5027930;28;20057;-60
2022/05/20 05:52:25;;;;;;;0.60;0.30;;;14.80;99.90;;;;;;5013097;28;20144;-60
2022/05/20 05:54:52;;;;;;;0.43;0.30;;;14.90;99.90;;;;;;5029289;28;20892;-60
2022/05/20 05:57:19;;;;;;;0.20;0.20;;;14.90;99.90;;;;;;5033860;28;20144;-60
2022/05/20 05:59:45;;;;;;;0.55;0.30;;;15.00;99.90;;;;;;5038901;28;20539;-60
2022/05/20 06:02:12;;;;;;;1.08;0.30;;;15.10;99.90;;;;;;5032415;28;20136;-60
2022/05/20 06:04:39;;;;;;;0.45;0.28;;;15.00;99.90;;;;;;5037753;28;21026;-60
2022/05/20 06:07:06;;;;;;;0.65;0.35;;;15.00;99.90;;;;;;5039393;28;20106;-61
2022/05/20 06:09:33;;;;;;;0.75;0.50;;;14.90;99.90;;;;;;5029829;28;20061;-60
2022/05/20 06:12:01;;;;;;;0.35;0.22;;;14.90;99.90;;;;;;5031218;28;20583;-61
2022/05/20 06:14:28;;;;;;;0.95;0.38;;;14.80;99.90;;;;;;5027792;28;20079;-62
2022/05/20 06:16:55;;;;;;;0.30;0.20;;;14.90;99.90;;;;;;5038387;28;20392;-62
2022/05/20 06:19:22;;;;;;;0.35;0.20;;;14.90;99.90;;;;;;5036414;28;20084;-60
2022/05/20 06:21:49;;;;;;;0.68;0.30;;;15.00;99.90;;;;;;5037833;28;20447;-62
2022/05/20 06:24:18;;;;;;;0.80;0.40;;;15.10;99.90;;;;;;5029590;28;20052;-62
2022/05/20 06:26:44;;;;;;;0.38;0.22;;;15.10;99.90;;;;;;5038455;28;20514;-61
2022/05/20 06:29:12;;;;;;;0.50;0.20;;;15.20;99.90;;;;;;5038275;28;20132;-61
2022/05/20 06:31:39;;;;;;;0.50;0.22;;;15.20;99.90;;;;;;5039048;28;20053;-62
2022/05/20 06:34:05;;;;;;;0.35;0.20;;;15.20;99.90;;;;;;5038489;28;20048;-62
2022/05/20 06:42:04;;;;;;;0.30;0.20;;;15.30;99.90;;;;;;5038823;28;20143;-62
2022/05/20 06:44:32;;;;;;;0.20;0.20;;;15.30;99.90;;;;;;5037964;28;20061;-61
2022/05/20 06:46:58;;;;;;;0.28;0.17;;;15.30;99.90;;;;;;5038835;28;20136;-62
2022/05/20 06:49:25;;;;;;;0.40;0.30;;;15.30;99.90;;;;;;5037413;28;20060;-61
2022/05/20 06:51:54;;;;;;;0.60;0.30;;;15.30;99.90;;;;;;5024246;28;20069;-62
2022/05/20 06:54:21;;;;;;;0.70;0.40;;;15.30;99.90;;;;;;5037826;28;20053;-61
2022/05/20 06:56:48;;;;;;;0.50;0.35;;;15.30;99.90;;;;;;5035596;28;20159;-61
2022/05/20 06:59:14;;;;;;;0.28;0.20;;;15.40;99.90;;;;;;5024235;28;20059;-62
2022/05/20 07:01:41;;;;;;;0.25;0.20;;;15.30;99.90;;;;;;5038750;28;20103;-61
2022/05/20 07:04:31;;;;;;;0.45;0.28;;;15.30;99.90;;;;;;5036961;28;20432;-62
2022/05/20 07:06:58;;;;;;;0.38;0.25;;;15.30;99.90;;;;;;5038578;28;20080;-62
2022/05/20 07:09:25;;;;;;;0.30;0.20;;;15.30;99.90;;;;;;5017431;28;20177;-62
2022/05/20 07:11:52;;;;;;;0.35;0.28;;;15.40;99.90;;;;;;5023924;28;20057;-60
2022/05/20 07:14:18;;;;;;;0.43;0.35;;;15.40;99.90;;;;;;5037322;28;20054;-62
2022/05/20 07:16:45;;;;;;;0.40;0.30;;;15.40;99.90;;;;;;5004801;28;20446;-61
2022/05/20 07:19:12;;;;;;;0.73;0.30;;;15.40;99.90;;;;;;5035336;28;20143;-61
2022/05/20 07:21:39;;;;;;;0.63;0.40;;;15.30;99.90;;;;;;5037999;28;20681;-62
2022/05/20 07:24:06;;;;;;;0.43;0.30;;;15.20;99.90;;;;;;5036056;28;20057;-62
2022/05/20 07:26:33;;;;;;;1.05;0.30;;;14.90;99.90;;;;;;5033225;28;20045;-62
2022/05/20 07:29:00;;;;;;;0.28;0.22;;;14.60;99.90;;;;;;5038275;28;20242;-62
2022/05/20 07:31:27;;;;;;;0.90;0.50;;;14.40;99.90;;;;;;5034161;28;20497;-61
2022/05/20 07:33:54;;;;;;;0.50;0.35;;;14.30;99.90;;;;;;5031196;28;20049;-62
2022/05/20 07:36:21;;;;;;;0.50;0.22;;;14.20;99.90;;;;;;5019104;28;20071;-62
2022/05/20 07:38:47;;;;;;;0.73;0.38;;;14.30;99.90;;;;;;5031705;28;20053;-61
2022/05/20 07:41:14;;;;;;;0.30;0.20;;;14.30;99.90;;;;;;5041153;28;20583;-62
2022/05/20 07:43:41;;;;;;;0.68;0.35;;;14.40;99.90;;;;;;5023217;28;20143;-61
2022/05/20 07:46:08;;;;;;;0.45;0.40;;;14.40;99.90;;;;;;5041177;28;20507;-61
2022/05/20 07:48:34;;;;;;;0.63;0.30;;;14.40;99.90;;;;;;5039384;28;20069;-60
2022/05/20 07:51:05;;;;;;;0.45;0.32;;;14.40;99.90;;;;;;5019477;28;20041;-61
2022/05/20 07:53:42;;;;;;;0.28;0.10;;;14.40;99.90;;;;;;5036977;28;20136;-60
2022/05/20 07:56:11;;;;;;;0.55;0.35;;;14.40;99.90;;;;;;5041699;28;20053;-61
2022/05/20 07:58:44;;;;;;;0.63;0.32;;;14.40;99.90;;;;;;5007001;28;20103;-60
2022/05/20 08:01:24;;;;;;;0.40;0.28;;;14.40;99.90;;;;;;5041460;28;20077;-61
2022/05/20 08:06:57;;;;;;;0.55;0.30;;;14.30;99.90;;;;;;5026776;28;20131;-60
2022/05/20 08:09:26;;;;;;;1.38;0.55;;;14.30;99.90;;;;;;5023848;28;20049;-60
2022/05/20 08:11:52;;;;;;;0.52;0.40;;;14.20;99.90;;;;;;5041416;28;20076;-60
2022/05/20 08:14:19;;;;;;;1.15;0.47;;;14.10;99.90;;;;;;5040619;28;20068;-61
2022/05/20 08:16:46;;;;;;;0.43;0.30;;;14.10;99.90;;;;;;5041564;28;20559;-61
2022/05/20 08:19:13;;;;;;;0.32;0.25;;;14.00;99.90;;;;;;5040347;28;20106;-60
2022/05/20 08:21:40;;;;;;;0.55;0.35;;;13.90;99.90;;;;;;5041323;28;20148;-61
2022/05/20 08:24:07;;;;;;;0.80;0.28;;;13.80;99.90;;;;;;5015904;28;20059;-60
2022/05/20 08:26:34;;;;;;;0.77;0.40;;;13.80;99.90;;;;;;5027240;28;20208;-61
2022/05/20 08:29:01;;;;;;;0.38;0.38;;;13.70;99.90;;;;;;5036578;28;20056;-61
2022/05/20 08:31:28;;;;;;;0.32;0.30;;;13.60;99.90;;;;;;5040991;28;20202;-61
2022/05/20 08:33:55;;;;;;;0.90;0.30;;;13.60;99.90;;;;;;5036163;28;20201;-61
2022/05/20 08:36:21;;;;;;;0.60;0.30;;;13.60;99.90;;;;;;5034496;28;20079;-60
2022/05/20 08:38:48;;;;;;;0.40;0.30;;;13.60;99.90;;;;;;5025263;28;20553;-61
2022/05/20 08:41:18;;;;;;;0.75;0.40;;;13.50;99.90;;;;;;5040548;28;20110;-61
2022/05/20 08:43:45;;;;;;;0.88;0.38;;;13.40;99.90;;;;;;5016232;28;20127;-61
2022/05/20 08:46:12;;;;;;;0.43;0.20;;;13.30;99.90;;;;;;5026139;28;20613;-61
2022/05/20 08:48:43;;;;;;;0.30;0.20;;;13.40;99.90;;;;;;5015266;28;20080;-60
2022/05/20 08:51:10;;;;;;;0.30;0.30;;;13.40;99.90;;;;;;5031623;28;20045;-61
2022/05/20 08:53:40;;;;;;;0.65;0.50;;;13.40;99.90;;;;;;5036465;28;20137;-60
2022/05/20 08:56:08;;;;;;;0.22;0.22;;;13.30;99.90;;;;;;5021415;28;20906;-61
2022/05/20 08:58:36;;;;;;;0.52;0.30;;;13.20;99.90;;;;;;5032876;28;20562;-60
2022/05/20 09:01:03;;;;;;;0.17;0.17;;;13.20;99.90;;;;;;4989537;28;20045;-61
2022/05/20 09:03:30;;;;;;;0.50;0.20;;;13.10;99.90;;;;;;5016356;28;20057;-60
2022/05/20 09:06:11;;;;;;;0.60;0.30;;;13.00;99.90;;;;;;5037190;28;20076;-61
2022/05/20 09:08:38;;;;;;;0.88;0.30;;;12.80;99.90;;;;;;5022048;28;20132;-60
2022/05/20 09:11:06;;;;;;;0.45;0.30;;;12.90;99.90;;;;;;5025531;28;20576;-61
2022/05/20 09:16:23;;;;;;;0.35;0.22;;;12.80;99.90;;;;;;5034328;28;20040;-61
2022/05/20 09:19:12;;;;;;;0.35;0.20;;;12.80;99.90;;;;;;5037082;28;20049;-60
2022/05/20 09:21:40;;;;;;;0.20;0.20;;;12.80;99.90;;;;;;5038734;28;20179;-61
2022/05/20 09:24:28;;;;;;;0.40;0.30;;;12.80;99.90;;;;;;5035499;28;20048;-61
2022/05/20 09:27:09;;;;;;;0.10;0.10;;;12.90;99.90;;;;;;5024143;28;20900;-61
2022/05/20 09:29:39;;;;;;;0.55;0.40;;;12.80;99.90;;;;;;5026286;28;20052;-61
2022/05/20 09:32:24;;;;;;;0.30;0.30;;;12.70;99.90;;;;;;5023171;28;20067;-61
2022/05/20 09:35:01;;;;;;;0.30;0.30;;;12.80;99.90;;;;;;5005333;28;20052;-61
2022/05/20 09:37:31;;;;;;;0.43;0.20;;;12.90;99.90;;;;;;5038661;28;20136;-62
2022/05/20 09:39:58;;;;;;;1.02;0.32;;;12.80;99.90;;;;;;5031451;28;20040;-61
2022/05/20 09:42:28;;;;;;;0.22;0.20;;;12.80;99.90;;;;;;5013742;28;20088;-61
2022/05/20 09:45:12;;;;;;;0.20;0.20;;;12.90;99.90;;;;;;5045079;28;20148;-61
2022/05/20 09:47:40;;;;;;;0.30;0.28;;;12.90;99.90;;;;;;5046813;28;20126;-61
2022/05/20 09:50:35;;;;;;;0.45;0.22;;;13.00;99.90;;;;;;5026860;28;20140;-61
2022/05/20 09:53:14;;;;;;;0.38;0.30;;;13.10;99.90;;;;;;5013261;28;20111;-61
2022/05/20 09:55:43;;;;;;;0.43;0.30;;;13.20;99.90;;;;;;5032147;28;20107;-61
2022/05/20 09:58:27;;;;;;;1.27;0.68;;;13.10;99.90;;;;;;4993284;28;20058;-61
2022/05/20 10:00:55;;;;;;;0.55;0.35;;;13.20;99.90;;;;;;5041105;28;20041;-61
2022/05/20 10:03:35;;;;;;;0.35;0.30;;;13.20;99.90;;;;;;5010429;28;20148;-61
2022/05/20 10:06:28;;;;;;;0.52;0.30;;;13.20;99.90;;;;;;5025098;28;20075;-61
2022/05/20 10:09:16;;;;;;;0.40;0.20;;;13.10;99.90;;;;;;5015890;28;20115;-61
2022/05/20 10:11:51;;;;;;;0.95;0.50;;;13.00;99.90;;;;;;5041529;28;20048;-61
2022/05/20 10:14:24;;;;;;;0.98;0.50;;;12.90;99.90;;;;;;5028083;28;20094;-61
2022/05/20 10:17:17;;;;;;;0.68;0.50;;;12.80;99.90;;;;;;5020906;28;20516;-60
2022/05/20 10:20:07;;;;;;;0.60;0.40;;;12.70;99.90;;;;;;5036835;28;20435;-61
2022/05/20 10:22:45;;;;;;;0.43;0.32;;;12.60;99.90;;;;;;4996985;28;20045;-61
2022/05/20 10:25:30;;;;;;;0.68;0.50;;;12.50;99.90;;;;;;5037887;28;20543;-61
2022/05/20 10:27:57;;;;;;;0.52;0.40;;;12.40;99.90;;;;;;5008201;28;20053;-62
2022/05/20 10:33:28;;;;;;;0.98;0.50;;;12.20;99.90;;;;;;5000307;28;20093;-61
2022/05/20 10:35:58;;;;;;;1.35;0.63;;;12.00;99.90;;;;;;5012290;28;20057;-61
2022/05/20 10:38:45;;;;;;;2.80;0.70;;;11.90;99.90;;;;;;5012295;28;20135;-61
2022/05/20 10:41:36;;;;;;;1.23;0.38;;;11.80;99.90;;;;;;5037433;28;20049;-61
2022/05/20 10:51:06;;;;;;;0.38;0.38;;;11.90;99.90;;;;;;5022129;28;20226;-60
2022/05/20 10:53:44;;;;;;;0.80;0.50;;;11.90;99.90;;;;;;5014448;28;20045;-60
2022/05/20 10:56:24;;;;;;;0.93;0.70;;;11.90;99.90;;;;;;5007216;28;20201;-61
2022/05/20 10:59:12;;;;;;;0.65;0.52;;;11.90;99.90;;;;;;5033641;28;20492;-60
2022/05/20 11:01:44;;;;;;;0.65;0.40;;;12.00;99.90;;;;;;5038265;28;20617;-61
2022/05/20 11:04:34;;;;;;;1.15;0.50;;;12.00;99.90;;;;;;5034461;28;20136;-60
2022/05/20 11:07:33;;;;;;;1.45;0.60;;;12.20;99.90;;;;;;5021209;28;20147;-60
2022/05/20 11:10:29;;;;;;;1.17;0.52;;;12.20;99.90;;;;;;5016669;28;20087;-60
2022/05/20 11:12:59;;;;;;;1.02;0.47;;;12.40;99.90;;;;;;5024016;28;20489;-60
2022/05/20 11:15:53;;;;;;;1.08;0.50;;;12.70;99.90;;;;;;5038611;28;20135;-60
2022/05/20 11:18:39;;;;;;;1.00;0.60;;;12.90;99.90;;;;;;5042741;28;20115;-61
2022/05/20 11:21:20;;;;;;;0.63;0.50;;;12.90;99.90;;;;;;5040847;28;20715;-60
2022/05/20 11:24:07;;;;;;;1.27;0.70;;;12.90;99.90;;;;;;5039768;28;20477;-60
2022/05/20 11:26:51;;;;;;;0.80;0.52;;;13.00;99.90;;;;;;5025236;28;20163;-61
2022/05/20 11:29:25;;;;;;;1.08;0.95;;;13.00;99.90;;;;;;5040048;28;20155;-60
2022/05/20 11:32:05;;;;;;;1.17;0.70;;;13.00;99.90;;;;;;5024011;28;20116;-61
2022/05/20 11:34:54;;;;;;;1.98;0.90;;;12.90;99.90;;;;;;5028569;28;20099;-60
2022/05/20 11:37:34;;;;;;;1.27;0.70;;;12.90;99.90;;;;;;5019731;28;20132;-61
2022/05/20 11:40:20;;;;;;;1.50;0.90;;;12.90;99.90;;;;;;5020053;28;20393;-60
2022/05/20 11:43:09;;;;;;;2.25;0.90;;;12.90;99.90;;;;;;5024409;28;20119;-60
2022/05/20 11:45:48;;;;;;;1.73;0.93;;;12.90;99.90;;;;;;5039405;28;20045;-60
2022/05/20 11:48:38;;;;;;;1.27;0.77;;;12.90;99.90;;;;;;5003557;28;20140;-60
2022/05/20 11:51:23;;;;;;;1.48;0.82;;;13.00;99.90;;;;;;5037455;28;20490;-61
2022/05/20 11:54:19;;;;;;;1.40;0.88;;;13.00;99.90;;;;;;5039101;28;20053;-60
2022/05/20 11:56:50;;;;;;;2.63;1.10;;;13.00;99.90;;;;;;5041227;28;20188;-60
2022/05/20 11:59:27;;;;;;;1.85;0.90;;;13.00;99.90;;;;;;5021484;28;20627;-60
2022/05/20 12:01:56;;;;;;;2.85;0.93;;;13.00;99.90;;;;;;5013419;28;20064;-60
2022/05/20 12:04:24;;;;;;;2.22;1.20;;;13.10;99.90;;;;;;5023719;28;20053;-58
2022/05/20 12:06:54;;;;;;;1.98;1.00;;;13.10;99.90;;;;;;5024295;28;20059;-60
2022/05/20 12:09:52;;;;;;;2.28;1.10;;;13.00;99.90;;;;;;5021715;28;20439;-60
2022/05/20 12:12:23;;;;;;;2.28;1.20;;;13.10;99.90;;;;;;5010845;28;20073;-60
2022/05/20 12:15:08;;;;;;;2.10;1.23;;;13.20;99.90;;;;;;5041725;28;20048;-60
2022/05/20 12:17:36;;;;;;;0.95;0.80;;;13.30;99.90;;;;;;5038382;28;20144;-61
2022/05/20 12:26:07;;;;;;;1.65;0.95;;;13.40;99.90;;;;;;5039710;28;20705;-61
2022/05/20 12:28:35;;;;;;;3.22;1.10;;;13.40;99.90;;;;;;5039134;28;20049;-60
2022/05/20 12:31:02;;;;;;;0.88;0.80;;;13.40;99.90;;;;;;5023866;28;20059;-60
2022/05/20 12:33:48;;;;;;;1.27;0.82;;;13.40;99.90;;;;;;5042032;28;20049;-60
2022/05/20 12:36:14;;;;;;;1.30;0.82;;;13.50;99.90;;;;;;5033889;28;20131;-60
2022/05/20 12:38:42;;;;;;;1.95;1.20;;;13.60;99.90;;;;;;5031281;28;20136;-60
2022/05/20 12:41:22;;;;;;;1.20;0.77;;;13.70;99.90;;;;;;5023612;28;20059;-59
2022/05/20 12:43:51;;;;;;;0.88;0.65;;;13.70;99.90;;;;;;5040827;28;20520;-60
2022/05/20 12:46:50;;;;;;;0.80;0.70;;;13.80;99.90;;;;;;5038494;28;20141;-60
2022/05/20 12:49:19;;;;;;;2.25;1.00;;;14.10;99.90;;;;;;5024007;28;20498;-60
2022/05/20 12:51:47;;;;;;;1.25;0.80;;;14.70;99.90;;;;;;5040596;28;20073;-61
2022/05/20 12:54:19;;;;;;;1.10;0.60;;;15.10;99.90;;;;;;5039144;28;20131;-61
2022/05/20 12:56:46;;;;;;;1.15;0.77;;;15.50;99.90;;;;;;5041926;28;20404;-60
2022/05/20 12:59:14;;;;;;;1.20;0.82;;;16.00;99.90;;;;;;5041468;28;20148;-61
2022/05/20 13:01:52;;;;;;;2.00;0.80;;;16.60;99.90;;;;;;5040885;28;20099;-61
2022/05/20 13:04:19;;;;;;;2.25;1.67;;;17.10;99.90;;;;;;5021019;28;20159;-60
2022/05/20 13:06:47;;;;;;;2.15;0.90;;;17.50;99.90;;;;;;5022516;28;20116;-61
2022/05/20 13:09:24;;;;;;;1.20;0.80;;;17.60;99.90;;;;;;5006204;28;20084;-61
2022/05/20 13:11:51;;;;;;;1.35;0.63;;;18.00;99.90;;;;;;5003527;28;20132;-61
2022/05/20 13:14:28;;;;;;;1.08;0.77;;;17.70;99.90;;;;;;5037108;28;20493;-61
2022/05/20 13:16:58;;;;;;;0.85;0.80;;;18.10;99.90;;;;;;5022920;28;20118;-60
2022/05/20 13:19:28;;;;;;;2.60;1.00;;;18.20;99.90;;;;;;5038724;28;20064;-61
2022/05/20 13:21:58;;;;;;;1.33;0.75;;;18.10;99.90;;;;;;5019649;28;20183;-61
2022/05/20 13:24:27;;;;;;;1.50;0.80;;;17.80;99.90;;;;;;5022188;28;20063;-61
2022/05/20 13:27:14;;;;;;;1.10;0.63;;;17.20;99.90;;;;;;5038546;28;21018;-60
2022/05/20 13:29:42;;;;;;;0.63;0.63;;;17.10;99.90;;;;;;5040094;28;20389;-60
2022/05/20 13:32:20;;;;;;;2.72;0.88;;;17.90;99.90;;;;;;5039187;28;20546;-60
2022/05/20 13:34:49;;;;;;;2.25;1.10;;;18.10;99.90;;;;;;5039365;28;20051;-61
2022/05/20 13:37:32;;;;;;;1.23;0.65;;;17.90;99.90;;;;;;5035656;28;20139;-60
2022/05/20 13:40:14;;;;;;;1.65;1.08;;;17.40;99.90;;;;;;5022475;28;20063;-61
2022/05/20 13:42:47;;;;;;;2.00;1.00;;;18.00;99.90;;;;;;5007267;28;20052;-61
2022/05/20 13:45:14;;;;;;;0.82;0.70;;;18.70;99.90;;;;;;5021086;28;20131;-60
2022/05/20 13:50:26;;;;;;;0.77;0.65;;;19.80;99.90;;;;;;5035339;28;20055;-60
2022/05/20 13:52:54;;;;;;;1.13;0.80;;;19.60;99.90;;;;;;5021879;28;20048;-60
2022/05/20 13:55:21;;;;;;;1.90;0.90;;;19.80;99.90;;;;;;5021945;28;20060;-59
2022/05/20 13:57:49;;;;;;;1.98;0.80;;;19.20;99.90;;;;;;5032339;28;20442;-60